createdAt,value
2017-02-01T00:00:11.084Z,0
2017-02-01T00:01:20.504Z,0
2017-02-01T00:02:29.546Z,0
2017-02-01T00:03:38.973Z,0
2017-02-01T00:04:49.159Z,0
2017-02-01T00:05:58.197Z,0
2017-02-01T00:07:07.238Z,0
2017-02-01T00:08:17.421Z,0
2017-02-01T00:09:26.464Z,0
2017-02-01T00:10:35.500Z,0
2017-02-01T00:11:44.973Z,0
2017-02-01T00:12:53.635Z,0
2017-02-01T00:14:03.441Z,0
2017-02-01T00:15:12.868Z,0
2017-02-01T00:16:22.293Z,0
2017-02-01T00:17:31.348Z,0
2017-02-01T00:18:40.391Z,0
2017-02-01T00:19:49.821Z,0
2017-02-01T00:20:59.239Z,0
2017-02-01T00:22:08.286Z,0
2017-02-01T00:23:18.093Z,0
2017-02-01T00:24:27.508Z,0
2017-02-01T00:25:37.309Z,0
2017-02-01T00:26:46.351Z,0
2017-02-01T00:27:56.152Z,0
2017-02-01T00:29:05.952Z,0
2017-02-01T00:30:14.992Z,0
2017-02-01T00:31:24.796Z,0
2017-02-01T00:32:34.225Z,0
2017-02-01T00:33:44.027Z,0
2017-02-01T00:34:53.867Z,0
2017-02-01T00:36:03.292Z,0
2017-02-01T00:37:12.333Z,0
2017-02-01T00:38:21.749Z,0
2017-02-01T00:39:31.934Z,0
2017-02-01T00:40:41.743Z,0
2017-02-01T00:41:51.544Z,0
2017-02-01T00:43:01.727Z,0
2017-02-01T00:44:11.539Z,0
2017-02-01T00:45:21.337Z,0
2017-02-01T00:46:31.145Z,0
2017-02-01T00:47:40.572Z,0
2017-02-01T00:48:50.373Z,0
2017-02-01T00:50:00.176Z,0
2017-02-01T00:51:10.029Z,0
2017-02-01T00:52:19.829Z,0
2017-02-01T00:53:28.871Z,0
2017-02-01T00:54:37.528Z,0
2017-02-01T00:55:47.712Z,0
2017-02-01T00:56:57.133Z,0
2017-02-01T00:58:06.172Z,0
2017-02-01T00:59:15.595Z,0
2017-02-01T01:00:24.631Z,0
2017-02-01T01:01:34.435Z,0
2017-02-01T01:02:43.853Z,0
2017-02-01T01:03:53.278Z,0
2017-02-01T01:05:02.320Z,0
2017-02-01T01:06:10.981Z,0
2017-02-01T01:07:19.668Z,0
2017-02-01T01:08:29.471Z,0
2017-02-01T01:09:38.894Z,0
2017-02-01T01:10:48.697Z,0
2017-02-01T01:11:58.503Z,0
2017-02-01T01:13:08.316Z,0
2017-02-01T01:14:18.501Z,0
2017-02-01T01:15:27.951Z,0
2017-02-01T01:16:38.141Z,0
2017-02-01T01:17:48.328Z,0
2017-02-01T01:18:57.745Z,0
2017-02-01T01:20:07.198Z,0
2017-02-01T01:21:16.625Z,0
2017-02-01T01:22:25.663Z,0
2017-02-01T01:23:35.083Z,0
2017-02-01T01:24:44.890Z,0
2017-02-01T01:25:54.312Z,0
2017-02-01T01:27:03.734Z,0
2017-02-01T01:28:13.538Z,0
2017-02-01T01:29:23.367Z,0
2017-02-01T01:30:32.794Z,0
2017-02-01T01:31:42.210Z,0
2017-02-01T01:32:51.634Z,0
2017-02-01T01:34:01.444Z,0
2017-02-01T01:35:11.252Z,0
2017-02-01T01:36:20.288Z,0
2017-02-01T01:37:29.330Z,0
2017-02-01T01:38:38.365Z,0
2017-02-01T01:39:48.557Z,0
2017-02-01T01:40:57.616Z,0
2017-02-01T01:42:06.659Z,0
2017-02-01T01:43:16.080Z,0
2017-02-01T01:44:25.879Z,0
2017-02-01T01:45:35.683Z,0
2017-02-01T01:46:45.098Z,0
2017-02-01T01:47:54.141Z,0
2017-02-01T01:49:03.617Z,0
2017-02-01T01:50:12.271Z,0
2017-02-01T01:51:21.690Z,0
2017-02-01T01:52:31.109Z,0
2017-02-01T01:53:39.765Z,0
2017-02-01T01:54:48.806Z,0
2017-02-01T01:55:57.874Z,0
2017-02-01T01:57:06.909Z,0
2017-02-01T01:58:16.334Z,0
2017-02-01T01:59:25.751Z,0
2017-02-01T02:00:35.562Z,0
2017-02-01T02:01:44.991Z,0
2017-02-01T02:02:54.414Z,0
2017-02-01T02:04:04.219Z,0
2017-02-01T02:05:13.260Z,0
2017-02-01T02:06:22.692Z,0
2017-02-01T02:07:32.498Z,0
2017-02-01T02:08:41.537Z,0
2017-02-01T02:09:50.199Z,0
2017-02-01T02:10:59.623Z,0
2017-02-01T02:12:09.050Z,0
2017-02-01T02:13:18.851Z,0
2017-02-01T02:14:28.654Z,0
2017-02-01T02:15:38.074Z,0
2017-02-01T02:16:47.871Z,0
2017-02-01T02:17:56.528Z,0
2017-02-01T02:19:06.716Z,0
2017-02-01T02:20:15.764Z,0
2017-02-01T02:21:25.180Z,0
2017-02-01T02:22:34.600Z,0
2017-02-01T02:23:43.257Z,0
2017-02-01T02:24:52.296Z,0
2017-02-01T02:26:02.482Z,0
2017-02-01T02:27:12.285Z,0
2017-02-01T02:28:22.081Z,0
2017-02-01T02:29:31.118Z,0
2017-02-01T02:30:40.550Z,0
2017-02-01T02:31:49.204Z,0
2017-02-01T02:32:58.628Z,0
2017-02-01T02:34:08.439Z,0
2017-02-01T02:35:17.861Z,0
2017-02-01T02:36:26.937Z,0
2017-02-01T02:37:36.736Z,0
2017-02-01T02:38:46.163Z,0
2017-02-01T02:39:55.584Z,0
2017-02-01T02:41:05.385Z,0
2017-02-01T02:42:14.427Z,0
2017-02-01T02:43:23.464Z,0
2017-02-01T02:44:32.882Z,0
2017-02-01T02:45:42.691Z,0
2017-02-01T02:46:52.491Z,0
2017-02-01T02:48:02.687Z,0
2017-02-01T02:49:12.110Z,0
2017-02-01T02:50:20.765Z,0
2017-02-01T02:51:30.191Z,0
2017-02-01T02:52:39.998Z,0
2017-02-01T02:53:49.431Z,0
2017-02-01T02:54:59.231Z,0
2017-02-01T02:56:09.413Z,0
2017-02-01T02:57:19.216Z,0
2017-02-01T02:58:28.252Z,0
2017-02-01T02:59:38.053Z,0
2017-02-01T03:00:47.859Z,0
2017-02-01T03:01:56.906Z,0
2017-02-01T03:03:05.572Z,0
2017-02-01T03:04:14.608Z,0
2017-02-01T03:05:24.058Z,0
2017-02-01T03:06:33.863Z,0
2017-02-01T03:07:43.665Z,0
2017-02-01T03:08:53.850Z,0
2017-02-01T03:10:03.270Z,0
2017-02-01T03:11:13.068Z,0
2017-02-01T03:12:22.873Z,0
2017-02-01T03:13:31.908Z,0
2017-02-01T03:14:41.325Z,0
2017-02-01T03:15:50.754Z,0
2017-02-01T03:17:00.558Z,0
2017-02-01T03:18:09.983Z,0
2017-02-01T03:19:18.636Z,0
2017-02-01T03:20:28.444Z,0
2017-02-01T03:21:37.872Z,0
2017-02-01T03:22:47.674Z,0
2017-02-01T03:23:56.713Z,0
2017-02-01T03:25:06.141Z,0
2017-02-01T03:26:15.557Z,0
2017-02-01T03:27:24.975Z,0
2017-02-01T03:28:34.779Z,0
2017-02-01T03:29:43.815Z,0
2017-02-01T03:30:52.861Z,0
2017-02-01T03:32:01.907Z,0
2017-02-01T03:33:11.706Z,0
2017-02-01T03:34:20.740Z,0
2017-02-01T03:35:30.931Z,0
2017-02-01T03:36:40.352Z,0
2017-02-01T03:37:49.426Z,0
2017-02-01T03:38:58.850Z,0
2017-02-01T03:40:08.659Z,0
2017-02-01T03:41:18.463Z,0
2017-02-01T03:42:27.895Z,0
2017-02-01T03:43:37.700Z,0
2017-02-01T03:44:47.126Z,0
2017-02-01T03:45:56.932Z,0
2017-02-01T03:47:06.354Z,0
2017-02-01T03:48:16.153Z,0
2017-02-01T03:49:25.193Z,0
2017-02-01T03:50:34.618Z,0
2017-02-01T03:51:44.415Z,0
2017-02-01T03:52:54.220Z,0
2017-02-01T03:54:03.261Z,0
2017-02-01T03:55:13.059Z,0
2017-02-01T03:56:22.866Z,0
2017-02-01T03:57:33.054Z,0
2017-02-01T03:58:42.855Z,0
2017-02-01T03:59:52.657Z,0
2017-02-01T04:01:01.846Z,0
2017-02-01T04:02:11.657Z,0
2017-02-01T04:03:21.461Z,0
2017-02-01T04:04:31.272Z,0
2017-02-01T04:05:40.308Z,0
2017-02-01T04:06:49.726Z,0
2017-02-01T04:07:59.147Z,0
2017-02-01T04:09:08.954Z,0
2017-02-01T04:10:18.759Z,0
2017-02-01T04:11:27.799Z,0
2017-02-01T04:12:37.595Z,0
2017-02-01T04:13:46.634Z,0
2017-02-01T04:14:56.438Z,0
2017-02-01T04:16:06.241Z,0
2017-02-01T04:17:15.276Z,0
2017-02-01T04:18:24.312Z,0
2017-02-01T04:19:33.350Z,0
2017-02-01T04:20:42.765Z,0
2017-02-01T04:21:51.821Z,0
2017-02-01T04:23:00.477Z,0
2017-02-01T04:24:09.907Z,0
2017-02-01T04:25:18.575Z,0
2017-02-01T04:26:27.615Z,0
2017-02-01T04:27:37.420Z,0
2017-02-01T04:28:46.843Z,0
2017-02-01T04:29:56.647Z,0
2017-02-01T04:31:06.444Z,0
2017-02-01T04:32:16.246Z,0
2017-02-01T04:33:24.904Z,0
2017-02-01T04:34:33.944Z,0
2017-02-01T04:35:43.371Z,0
2017-02-01T04:36:53.180Z,0
2017-02-01T04:38:02.981Z,0
2017-02-01T04:39:12.036Z,0
2017-02-01T04:40:21.078Z,0
2017-02-01T04:41:30.110Z,0
2017-02-01T04:42:39.151Z,0
2017-02-01T04:43:48.572Z,0
2017-02-01T04:44:57.994Z,0
2017-02-01T04:46:07.795Z,0
2017-02-01T04:47:16.829Z,0
2017-02-01T04:48:26.248Z,0
2017-02-01T04:49:36.050Z,0
2017-02-01T04:50:45.469Z,0
2017-02-01T04:51:54.890Z,0
2017-02-01T04:53:04.309Z,0
2017-02-01T04:54:14.116Z,0
2017-02-01T04:55:23.534Z,0
2017-02-01T04:56:32.961Z,0
2017-02-01T04:57:42.387Z,0
2017-02-01T04:58:51.429Z,0
2017-02-01T05:00:01.232Z,0
2017-02-01T05:01:10.268Z,0
2017-02-01T05:02:19.695Z,0
2017-02-01T05:03:29.117Z,0
2017-02-01T05:04:38.537Z,0
2017-02-01T05:05:48.339Z,0
2017-02-01T05:06:57.375Z,0
2017-02-01T05:08:06.802Z,0
2017-02-01T05:09:16.226Z,0
2017-02-01T05:10:26.025Z,0
2017-02-01T05:11:35.827Z,0
2017-02-01T05:12:45.256Z,0
2017-02-01T05:13:54.294Z,0
2017-02-01T05:15:03.717Z,0
2017-02-01T05:16:13.904Z,0
2017-02-01T05:17:22.938Z,0
2017-02-01T05:18:31.983Z,0
2017-02-01T05:19:41.020Z,0
2017-02-01T05:20:50.055Z,0
2017-02-01T05:21:59.861Z,0
2017-02-01T05:23:10.043Z,0
2017-02-01T05:24:19.494Z,0
2017-02-01T05:25:28.912Z,0
2017-02-01T05:26:37.561Z,0
2017-02-01T05:27:47.362Z,0
2017-02-01T05:28:56.400Z,0
2017-02-01T05:30:05.434Z,0
2017-02-01T05:31:14.103Z,0
2017-02-01T05:32:23.903Z,0
2017-02-01T05:33:33.701Z,0
2017-02-01T05:34:42.734Z,0
2017-02-01T05:35:51.799Z,0
2017-02-01T05:37:01.251Z,0
2017-02-01T05:38:10.670Z,0
2017-02-01T05:39:20.091Z,0
2017-02-01T05:40:29.943Z,0
2017-02-01T05:41:38.992Z,0
2017-02-01T05:42:48.408Z,0
2017-02-01T05:43:58.212Z,0
2017-02-01T05:45:07.629Z,0
2017-02-01T05:46:17.050Z,0
2017-02-01T05:47:26.472Z,0
2017-02-01T05:48:36.270Z,0
2017-02-01T05:49:46.071Z,0
2017-02-01T05:50:55.116Z,0
2017-02-01T05:52:04.158Z,0
2017-02-01T05:53:13.962Z,0
2017-02-01T05:54:23.001Z,0
2017-02-01T05:55:32.039Z,0
2017-02-01T05:56:41.493Z,0
2017-02-01T05:57:51.290Z,0
2017-02-01T05:59:00.357Z,0
2017-02-01T06:00:10.155Z,0
2017-02-01T06:01:19.571Z,0
2017-02-01T06:02:28.611Z,0
2017-02-01T06:03:37.656Z,0
2017-02-01T06:04:46.695Z,0
2017-02-01T06:05:56.109Z,0
2017-02-01T06:07:05.535Z,0
2017-02-01T06:08:14.950Z,0
2017-02-01T06:09:24.747Z,0
2017-02-01T06:10:33.787Z,0
2017-02-01T06:11:42.446Z,0
2017-02-01T06:12:51.102Z,0
2017-02-01T06:14:00.903Z,0
2017-02-01T06:15:10.704Z,0
2017-02-01T06:16:20.506Z,0
2017-02-01T06:17:29.932Z,0
2017-02-01T06:18:39.733Z,0
2017-02-01T06:19:49.542Z,0
2017-02-01T06:20:59.360Z,0
2017-02-01T06:22:09.169Z,0
2017-02-01T06:23:18.214Z,0
2017-02-01T06:24:28.403Z,0
2017-02-01T06:25:37.824Z,0
2017-02-01T06:26:47.673Z,0
2017-02-01T06:27:57.100Z,0
2017-02-01T06:29:06.519Z,0
2017-02-01T06:30:15.549Z,0
2017-02-01T06:31:24.202Z,0
2017-02-01T06:32:33.621Z,0
2017-02-01T06:33:42.689Z,0
2017-02-01T06:34:52.489Z,0
2017-02-01T06:36:01.555Z,0
2017-02-01T06:37:11.018Z,0
2017-02-01T06:38:20.065Z,0
2017-02-01T06:39:29.478Z,0
2017-02-01T06:40:38.136Z,0
2017-02-01T06:41:48.335Z,0
2017-02-01T06:42:57.384Z,0
2017-02-01T06:44:06.799Z,0
2017-02-01T06:45:16.226Z,0
2017-02-01T06:46:25.641Z,0
2017-02-01T06:47:34.295Z,0
2017-02-01T06:48:43.326Z,0
2017-02-01T06:49:52.365Z,0
2017-02-01T06:51:02.168Z,0
2017-02-01T06:52:10.833Z,0
2017-02-01T06:53:20.254Z,0
2017-02-01T06:54:30.052Z,0
2017-02-01T06:55:39.851Z,0
2017-02-01T06:56:49.272Z,0
2017-02-01T06:57:58.697Z,5
2017-02-01T06:59:08.119Z,5
2017-02-01T07:00:17.164Z,5
2017-02-01T07:01:26.583Z,5
2017-02-01T07:02:36.384Z,5
2017-02-01T07:03:46.186Z,10
2017-02-01T07:04:55.607Z,10
2017-02-01T07:06:05.406Z,10
2017-02-01T07:07:14.823Z,10
2017-02-01T07:08:24.623Z,15
2017-02-01T07:09:33.284Z,15
2017-02-01T07:10:42.326Z,15
2017-02-01T07:11:51.369Z,15
2017-02-01T07:13:00.793Z,20
2017-02-01T07:14:10.597Z,20
2017-02-01T07:15:20.393Z,20
2017-02-01T07:16:30.197Z,25
2017-02-01T07:17:39.614Z,25
2017-02-01T07:18:49.796Z,25
2017-02-01T07:19:59.217Z,25
2017-02-01T07:21:08.640Z,30
2017-02-01T07:22:18.069Z,30
2017-02-01T07:23:28.671Z,35
2017-02-01T07:24:38.100Z,35
2017-02-01T07:25:47.898Z,40
2017-02-01T07:26:56.549Z,40
2017-02-01T07:28:05.975Z,45
2017-02-01T07:29:15.396Z,45
2017-02-01T07:30:25.206Z,50
2017-02-01T07:31:34.244Z,50
2017-02-01T07:32:43.284Z,55
2017-02-01T07:33:52.320Z,60
2017-02-01T07:35:00.980Z,60
2017-02-01T07:36:10.394Z,65
2017-02-01T07:37:19.842Z,70
2017-02-01T07:38:30.023Z,70
2017-02-01T07:39:39.442Z,75
2017-02-01T07:40:49.244Z,75
2017-02-01T07:41:59.050Z,80
2017-02-01T07:43:08.467Z,80
2017-02-01T07:44:17.501Z,85
2017-02-01T07:45:27.690Z,85
2017-02-01T07:46:37.112Z,85
2017-02-01T07:47:46.974Z,90
2017-02-01T07:48:56.400Z,95
2017-02-01T07:50:06.588Z,95
2017-02-01T07:51:16.008Z,100
2017-02-01T07:52:25.428Z,105
2017-02-01T07:53:35.233Z,105
2017-02-01T07:54:45.447Z,105
2017-02-01T07:55:54.862Z,110
2017-02-01T07:57:04.279Z,110
2017-02-01T07:58:13.314Z,115
2017-02-01T07:59:22.352Z,120
2017-02-01T08:00:31.770Z,125
2017-02-01T08:01:40.809Z,130
2017-02-01T08:02:50.231Z,130
2017-02-01T08:03:59.648Z,135
2017-02-01T08:05:09.832Z,140
2017-02-01T08:06:18.880Z,145
2017-02-01T08:07:28.298Z,150
2017-02-01T08:08:38.109Z,155
2017-02-01T08:09:47.145Z,155
2017-02-01T08:10:56.947Z,160
2017-02-01T08:12:06.753Z,165
2017-02-01T08:13:16.175Z,165
2017-02-01T08:14:25.597Z,170
2017-02-01T08:15:35.014Z,170
2017-02-01T08:16:44.437Z,175
2017-02-01T08:17:54.257Z,175
2017-02-01T08:19:04.065Z,175
2017-02-01T08:20:13.485Z,180
2017-02-01T08:21:22.905Z,180
2017-02-01T08:22:32.708Z,180
2017-02-01T08:23:42.128Z,185
2017-02-01T08:24:50.775Z,190
2017-02-01T08:26:00.195Z,190
2017-02-01T08:27:08.851Z,190
2017-02-01T08:28:18.708Z,190
2017-02-01T08:29:28.133Z,190
2017-02-01T08:30:37.171Z,190
2017-02-01T08:31:46.975Z,195
2017-02-01T08:32:56.011Z,195
2017-02-01T08:34:05.432Z,200
2017-02-01T08:35:15.238Z,200
2017-02-01T08:36:24.271Z,200
2017-02-01T08:37:32.926Z,200
2017-02-01T08:38:42.732Z,200
2017-02-01T08:39:52.597Z,205
2017-02-01T08:41:02.017Z,205
2017-02-01T08:42:12.201Z,205
2017-02-01T08:43:21.623Z,205
2017-02-01T08:44:31.427Z,210
2017-02-01T08:45:40.847Z,210
2017-02-01T08:46:51.035Z,210
2017-02-01T08:48:01.228Z,215
2017-02-01T08:49:10.263Z,215
2017-02-01T08:50:19.307Z,220
2017-02-01T08:51:28.347Z,220
2017-02-01T08:52:37.386Z,220
2017-02-01T08:53:46.809Z,225
2017-02-01T08:54:55.846Z,225
2017-02-01T08:56:05.284Z,230
2017-02-01T08:57:15.085Z,225
2017-02-01T08:58:24.885Z,225
2017-02-01T08:59:34.686Z,230
2017-02-01T09:00:44.152Z,230
2017-02-01T09:01:53.571Z,230
2017-02-01T09:03:02.997Z,235
2017-02-01T09:04:13.215Z,235
2017-02-01T09:05:22.633Z,240
2017-02-01T09:06:32.433Z,240
2017-02-01T09:07:42.237Z,245
2017-02-01T09:08:52.040Z,250
2017-02-01T09:10:01.081Z,250
2017-02-01T09:11:10.888Z,250
2017-02-01T09:12:20.696Z,255
2017-02-01T09:13:29.740Z,240
2017-02-01T09:14:39.158Z,245
2017-02-01T09:15:48.573Z,250
2017-02-01T09:16:58.380Z,255
2017-02-01T09:18:07.805Z,255
2017-02-01T09:19:17.993Z,260
2017-02-01T09:20:27.799Z,260
2017-02-01T09:21:37.215Z,265
2017-02-01T09:22:47.020Z,265
2017-02-01T09:23:56.487Z,265
2017-02-01T09:25:05.908Z,265
2017-02-01T09:26:15.387Z,270
2017-02-01T09:27:25.191Z,275
2017-02-01T09:28:34.611Z,275
2017-02-01T09:29:43.652Z,275
2017-02-01T09:30:53.070Z,270
2017-02-01T09:32:02.490Z,270
2017-02-01T09:33:12.294Z,275
2017-02-01T09:34:21.710Z,275
2017-02-01T09:35:31.134Z,275
2017-02-01T09:36:40.553Z,275
2017-02-01T09:37:49.639Z,280
2017-02-01T09:38:59.448Z,280
2017-02-01T09:40:08.872Z,280
2017-02-01T09:41:18.292Z,280
2017-02-01T09:42:27.332Z,280
2017-02-01T09:43:37.133Z,285
2017-02-01T09:44:46.174Z,285
2017-02-01T09:45:55.616Z,290
2017-02-01T09:47:05.035Z,295
2017-02-01T09:48:14.849Z,310
2017-02-01T09:49:24.317Z,325
2017-02-01T09:50:34.124Z,325
2017-02-01T09:51:43.176Z,330
2017-02-01T09:52:52.987Z,330
2017-02-01T09:54:02.792Z,335
2017-02-01T09:55:12.592Z,350
2017-02-01T09:56:22.397Z,355
2017-02-01T09:57:32.216Z,360
2017-02-01T09:58:41.639Z,360
2017-02-01T09:59:50.678Z,375
2017-02-01T10:00:59.713Z,370
2017-02-01T10:02:08.755Z,375
2017-02-01T10:03:17.411Z,380
2017-02-01T10:04:26.852Z,380
2017-02-01T10:05:36.291Z,390
2017-02-01T10:06:45.384Z,400
2017-02-01T10:07:54.416Z,405
2017-02-01T10:09:03.453Z,410
2017-02-01T10:10:12.877Z,415
2017-02-01T10:11:21.929Z,420
2017-02-01T10:12:30.974Z,420
2017-02-01T10:13:39.643Z,425
2017-02-01T10:14:49.068Z,425
2017-02-01T10:15:58.497Z,430
2017-02-01T10:17:08.689Z,425
2017-02-01T10:18:18.492Z,420
2017-02-01T10:19:27.914Z,415
2017-02-01T10:20:37.333Z,410
2017-02-01T10:21:47.147Z,425
2017-02-01T10:22:56.956Z,465
2017-02-01T10:24:06.812Z,550
2017-02-01T10:25:15.901Z,655
2017-02-01T10:26:24.935Z,790
2017-02-01T10:27:33.974Z,810
2017-02-01T10:28:44.171Z,825
2017-02-01T10:29:53.265Z,840
2017-02-01T10:31:03.071Z,850
2017-02-01T10:32:12.498Z,880
2017-02-01T10:33:21.923Z,860
2017-02-01T10:34:30.970Z,875
2017-02-01T10:35:40.403Z,880
2017-02-01T10:36:49.828Z,880
2017-02-01T10:37:58.490Z,890
2017-02-01T10:39:07.913Z,930
2017-02-01T10:40:16.958Z,970
2017-02-01T10:41:26.050Z,980
2017-02-01T10:42:35.098Z,975
2017-02-01T10:43:44.910Z,965
2017-02-01T10:44:53.576Z,940
2017-02-01T10:46:03.007Z,940
2017-02-01T10:47:12.434Z,910
2017-02-01T10:48:21.855Z,915
2017-02-01T10:49:32.048Z,920
2017-02-01T10:50:41.477Z,900
2017-02-01T10:51:50.143Z,940
2017-02-01T10:52:59.237Z,915
2017-02-01T10:54:08.662Z,920
2017-02-01T10:55:18.857Z,890
2017-02-01T10:56:28.293Z,945
2017-02-01T10:57:37.331Z,915
2017-02-01T10:58:46.429Z,870
2017-02-01T10:59:55.884Z,905
2017-02-01T11:01:05.697Z,900
2017-02-01T11:02:14.742Z,965
2017-02-01T11:03:24.549Z,985
2017-02-01T11:04:33.584Z,940
2017-02-01T11:05:43.394Z,920
2017-02-01T11:06:52.821Z,965
2017-02-01T11:08:02.639Z,970
2017-02-01T11:09:11.301Z,965
2017-02-01T11:10:20.349Z,960
2017-02-01T11:11:29.394Z,975
2017-02-01T11:12:38.436Z,960
2017-02-01T11:13:48.634Z,1000
2017-02-01T11:14:58.445Z,970
2017-02-01T11:16:08.307Z,960
2017-02-01T11:17:17.359Z,725
2017-02-01T11:18:26.400Z,515
2017-02-01T11:19:35.825Z,455
2017-02-01T11:20:44.873Z,440
2017-02-01T11:21:53.531Z,430
2017-02-01T11:23:02.573Z,425
2017-02-01T11:24:11.617Z,420
2017-02-01T11:25:20.659Z,415
2017-02-01T11:26:30.118Z,415
2017-02-01T11:27:39.545Z,415
2017-02-01T11:28:48.585Z,415
2017-02-01T11:29:58.773Z,420
2017-02-01T11:31:08.965Z,420
2017-02-01T11:32:18.392Z,420
2017-02-01T11:33:27.814Z,420
2017-02-01T11:34:37.249Z,415
2017-02-01T11:35:46.673Z,410
2017-02-01T11:36:55.714Z,410
2017-02-01T11:38:05.528Z,410
2017-02-01T11:39:15.335Z,410
2017-02-01T11:40:24.381Z,410
2017-02-01T11:41:33.811Z,405
2017-02-01T11:42:44.382Z,415
2017-02-01T11:43:53.448Z,410
2017-02-01T11:45:03.306Z,405
2017-02-01T11:46:12.348Z,405
2017-02-01T11:47:22.152Z,400
2017-02-01T11:48:31.607Z,375
2017-02-01T11:49:41.421Z,360
2017-02-01T11:50:50.464Z,360
2017-02-01T11:51:59.509Z,360
2017-02-01T11:53:08.930Z,360
2017-02-01T11:54:19.604Z,345
2017-02-01T11:55:29.034Z,340
2017-02-01T11:56:38.459Z,325
2017-02-01T11:57:47.880Z,325
2017-02-01T11:58:57.310Z,325
2017-02-01T12:00:06.739Z,320
2017-02-01T12:01:16.170Z,320
2017-02-01T12:02:25.593Z,320
2017-02-01T12:03:35.017Z,320
2017-02-01T12:04:43.675Z,325
2017-02-01T12:05:52.718Z,330
2017-02-01T12:07:02.158Z,340
2017-02-01T12:08:11.196Z,350
2017-02-01T12:09:20.630Z,360
2017-02-01T12:10:29.672Z,370
2017-02-01T12:11:38.718Z,380
2017-02-01T12:12:48.145Z,395
2017-02-01T12:13:57.567Z,405
2017-02-01T12:15:07.380Z,415
2017-02-01T12:16:16.805Z,420
2017-02-01T12:17:26.232Z,425
2017-02-01T12:18:35.672Z,430
2017-02-01T12:19:44.714Z,430
2017-02-01T12:20:53.759Z,425
2017-02-01T12:22:03.601Z,425
2017-02-01T12:23:12.640Z,420
2017-02-01T12:24:22.447Z,410
2017-02-01T12:25:31.872Z,400
2017-02-01T12:26:41.298Z,400
2017-02-01T12:27:51.109Z,395
2017-02-01T12:29:00.535Z,385
2017-02-01T12:30:10.372Z,380
2017-02-01T12:31:19.415Z,375
2017-02-01T12:32:28.457Z,370
2017-02-01T12:33:37.499Z,365
2017-02-01T12:34:46.547Z,365
2017-02-01T12:35:56.355Z,360
2017-02-01T12:37:05.396Z,365
2017-02-01T12:38:14.435Z,365
2017-02-01T12:39:23.857Z,375
2017-02-01T12:40:34.041Z,370
2017-02-01T12:41:42.700Z,375
2017-02-01T12:42:52.130Z,375
2017-02-01T12:44:01.974Z,380
2017-02-01T12:45:12.216Z,380
2017-02-01T12:46:21.252Z,380
2017-02-01T12:47:30.293Z,385
2017-02-01T12:48:39.722Z,385
2017-02-01T12:49:49.960Z,390
2017-02-01T12:50:59.176Z,390
2017-02-01T12:52:08.213Z,395
2017-02-01T12:53:17.255Z,395
2017-02-01T12:54:26.693Z,400
2017-02-01T12:55:35.732Z,400
2017-02-01T12:56:44.772Z,395
2017-02-01T12:57:53.828Z,395
2017-02-01T12:59:03.257Z,390
2017-02-01T13:00:13.078Z,390
2017-02-01T13:01:22.113Z,385
2017-02-01T13:02:31.159Z,385
2017-02-01T13:03:40.196Z,375
2017-02-01T13:04:50.020Z,370
2017-02-01T13:05:59.054Z,365
2017-02-01T13:07:08.856Z,365
2017-02-01T13:08:18.658Z,360
2017-02-01T13:09:28.078Z,360
2017-02-01T13:10:37.878Z,350
2017-02-01T13:11:47.295Z,345
2017-02-01T13:12:57.100Z,345
2017-02-01T13:14:06.138Z,340
2017-02-01T13:15:15.939Z,340
2017-02-01T13:16:25.740Z,340
2017-02-01T13:17:35.542Z,335
2017-02-01T13:18:44.969Z,330
2017-02-01T13:19:54.394Z,330
2017-02-01T13:21:03.818Z,330
2017-02-01T13:22:12.852Z,335
2017-02-01T13:23:22.269Z,340
2017-02-01T13:24:32.072Z,340
2017-02-01T13:25:41.492Z,345
2017-02-01T13:26:50.525Z,350
2017-02-01T13:27:59.940Z,355
2017-02-01T13:29:09.365Z,360
2017-02-01T13:30:18.790Z,365
2017-02-01T13:31:27.444Z,375
2017-02-01T13:32:36.864Z,380
2017-02-01T13:33:45.899Z,380
2017-02-01T13:34:54.943Z,380
2017-02-01T13:36:03.991Z,380
2017-02-01T13:37:13.063Z,380
2017-02-01T13:38:22.506Z,380
2017-02-01T13:39:31.931Z,380
2017-02-01T13:40:42.116Z,375
2017-02-01T13:41:51.543Z,375
2017-02-01T13:43:01.340Z,370
2017-02-01T13:44:10.012Z,370
2017-02-01T13:45:18.674Z,365
2017-02-01T13:46:27.707Z,365
2017-02-01T13:47:37.132Z,365
2017-02-01T13:48:46.560Z,360
2017-02-01T13:49:56.363Z,360
2017-02-01T13:51:05.788Z,355
2017-02-01T13:52:15.595Z,360
2017-02-01T13:53:25.012Z,350
2017-02-01T13:54:34.047Z,350
2017-02-01T13:55:43.462Z,345
2017-02-01T13:56:52.504Z,340
2017-02-01T13:58:02.358Z,335
2017-02-01T13:59:11.777Z,330
2017-02-01T14:00:21.192Z,325
2017-02-01T14:01:30.229Z,320
2017-02-01T14:02:40.032Z,320
2017-02-01T14:03:49.073Z,315
2017-02-01T14:04:58.112Z,310
2017-02-01T14:06:08.324Z,305
2017-02-01T14:07:17.746Z,300
2017-02-01T14:08:27.556Z,295
2017-02-01T14:09:37.367Z,290
2017-02-01T14:10:47.175Z,285
2017-02-01T14:11:56.213Z,280
2017-02-01T14:13:05.636Z,275
2017-02-01T14:14:15.061Z,270
2017-02-01T14:15:24.511Z,270
2017-02-01T14:16:33.548Z,265
2017-02-01T14:17:42.968Z,265
2017-02-01T14:18:52.769Z,260
2017-02-01T14:20:01.802Z,260
2017-02-01T14:21:11.990Z,255
2017-02-01T14:22:22.176Z,255
2017-02-01T14:23:31.217Z,250
2017-02-01T14:24:41.019Z,245
2017-02-01T14:25:50.438Z,245
2017-02-01T14:26:59.860Z,240
2017-02-01T14:28:08.895Z,240
2017-02-01T14:29:18.311Z,235
2017-02-01T14:30:28.119Z,235
2017-02-01T14:31:37.925Z,235
2017-02-01T14:32:46.962Z,230
2017-02-01T14:33:56.385Z,230
2017-02-01T14:35:05.422Z,225
2017-02-01T14:36:14.457Z,225
2017-02-01T14:37:23.116Z,225
2017-02-01T14:38:32.152Z,225
2017-02-01T14:39:41.957Z,220
2017-02-01T14:40:51.378Z,220
2017-02-01T14:42:00.798Z,215
2017-02-01T14:43:10.223Z,210
2017-02-01T14:44:19.696Z,200
2017-02-01T14:45:29.116Z,190
2017-02-01T14:46:38.155Z,180
2017-02-01T14:47:47.194Z,180
2017-02-01T14:48:56.997Z,175
2017-02-01T14:50:07.183Z,170
2017-02-01T14:51:15.856Z,160
2017-02-01T14:52:25.663Z,155
2017-02-01T14:53:34.707Z,145
2017-02-01T14:54:44.893Z,140
2017-02-01T14:55:54.313Z,140
2017-02-01T14:57:02.970Z,140
2017-02-01T14:58:12.015Z,135
2017-02-01T14:59:21.820Z,135
2017-02-01T15:00:30.857Z,130
2017-02-01T15:01:39.896Z,130
2017-02-01T15:02:50.088Z,125
2017-02-01T15:03:59.892Z,120
2017-02-01T15:05:09.697Z,115
2017-02-01T15:06:18.742Z,110
2017-02-01T15:07:28.161Z,105
2017-02-01T15:08:37.199Z,100
2017-02-01T15:09:47.001Z,95
2017-02-01T15:10:56.427Z,90
2017-02-01T15:12:05.461Z,90
2017-02-01T15:13:14.496Z,90
2017-02-01T15:14:23.531Z,90
2017-02-01T15:15:32.949Z,90
2017-02-01T15:16:41.989Z,90
2017-02-01T15:17:52.207Z,90
2017-02-01T15:19:01.628Z,85
2017-02-01T15:20:11.048Z,85
2017-02-01T15:21:20.092Z,85
2017-02-01T15:22:29.510Z,85
2017-02-01T15:23:38.932Z,90
2017-02-01T15:24:47.982Z,80
2017-02-01T15:25:57.410Z,75
2017-02-01T15:27:06.832Z,70
2017-02-01T15:28:16.254Z,65
2017-02-01T15:29:25.674Z,60
2017-02-01T15:30:34.735Z,60
2017-02-01T15:31:43.771Z,55
2017-02-01T15:32:53.573Z,50
2017-02-01T15:34:03.375Z,50
2017-02-01T15:35:12.412Z,45
2017-02-01T15:36:21.449Z,45
2017-02-01T15:37:30.485Z,45
2017-02-01T15:38:40.288Z,40
2017-02-01T15:39:49.707Z,35
2017-02-01T15:40:59.126Z,35
2017-02-01T15:42:08.930Z,35
2017-02-01T15:43:18.347Z,35
2017-02-01T15:44:27.764Z,30
2017-02-01T15:45:37.567Z,30
2017-02-01T15:46:47.368Z,30
2017-02-01T15:47:56.789Z,25
2017-02-01T15:49:06.209Z,25
2017-02-01T15:50:15.244Z,25
2017-02-01T15:51:24.665Z,25
2017-02-01T15:52:34.084Z,20
2017-02-01T15:53:43.145Z,20
2017-02-01T15:54:53.329Z,20
2017-02-01T15:56:02.367Z,20
2017-02-01T15:57:11.790Z,20
2017-02-01T15:58:21.207Z,20
2017-02-01T15:59:31.393Z,20
2017-02-01T16:00:40.429Z,20
2017-02-01T16:01:50.232Z,20
2017-02-01T16:03:00.059Z,15
2017-02-01T16:04:09.862Z,15
2017-02-01T16:05:19.286Z,20
2017-02-01T16:06:28.709Z,20
2017-02-01T16:07:37.748Z,15
2017-02-01T16:08:46.785Z,15
2017-02-01T16:09:56.204Z,15
2017-02-01T16:11:05.241Z,15
2017-02-01T16:12:15.055Z,15
2017-02-01T16:13:24.470Z,15
2017-02-01T16:14:34.274Z,10
2017-02-01T16:15:44.837Z,10
2017-02-01T16:16:55.023Z,10
2017-02-01T16:18:04.822Z,10
2017-02-01T16:19:14.242Z,5
2017-02-01T16:20:23.284Z,5
2017-02-01T16:21:32.700Z,5
2017-02-01T16:22:42.117Z,5
2017-02-01T16:23:51.540Z,5
2017-02-01T16:25:00.574Z,5
2017-02-01T16:26:10.378Z,5
2017-02-01T16:27:20.191Z,5
2017-02-01T16:28:29.226Z,5
2017-02-01T16:29:39.031Z,0